Time;durP1;ratioP1;P1;durP2;ratioP2;P2;SDS_P1;SDS_P2;PMS_P1;PMS_P2;Temp;Humidity;BMP_temperature;BMP_pressure;BME280_temperature;BME280_humidity;BME280_pressure;Samples;Min_cycle;Max_cycle;Signal;HPM_P1;HPM_P2
2023/03/09 00:02:00;;;;;;;1.10;0.50;;;13.70;71.00;13.80;94306.00;;;;5142121;27;20302;-78
2023/03/09 00:04:28;;;;;;;0.50;0.50;;;13.70;71.00;13.80;94302.00;;;;5147920;27;20190;-78
2023/03/09 00:06:56;;;;;;;0.60;0.60;;;13.70;71.00;13.80;94304.00;;;;5147345;27;20754;-78
2023/03/09 00:09:23;;;;;;;0.50;0.50;;;13.70;70.80;13.80;94300.00;;;;5133378;27;20198;-78
2023/03/09 00:11:51;;;;;;;0.60;0.60;;;13.70;70.80;13.80;94299.00;;;;5140051;27;20252;-78
2023/03/09 00:14:22;;;;;;;0.50;0.50;;;13.70;70.80;13.80;94291.00;;;;5142431;27;20216;-79
2023/03/09 00:16:51;;;;;;;0.70;0.60;;;13.70;70.80;13.80;94293.00;;;;5118577;27;20190;-78
2023/03/09 00:19:20;;;;;;;0.57;0.50;;;13.70;70.70;13.80;94305.00;;;;5135235;27;20294;-78
2023/03/09 00:21:51;;;;;;;0.50;0.50;;;13.70;70.70;13.80;94290.00;;;;5133798;27;20711;-78
2023/03/09 00:24:24;;;;;;;0.60;0.50;;;13.70;70.70;13.70;94294.00;;;;5118198;27;20282;-77
2023/03/09 00:26:54;;;;;;;1.10;0.53;;;13.70;70.60;13.70;94283.00;;;;5135416;27;20213;-78
2023/03/09 00:29:24;;;;;;;0.67;0.67;;;13.70;70.60;13.70;94290.00;;;;5098405;28;20656;-78
2023/03/09 00:31:52;;;;;;;0.50;0.50;;;13.70;70.80;13.70;94295.00;;;;5134649;27;20224;-78
2023/03/09 00:34:20;;;;;;;0.57;0.50;;;13.70;70.70;13.70;94284.00;;;;5101792;27;20277;-78
2023/03/09 00:36:48;;;;;;;0.60;0.60;;;13.70;70.80;13.70;94283.00;;;;5141698;27;20196;-78
2023/03/09 00:39:17;;;;;;;0.43;0.30;;;13.70;70.80;13.80;94287.00;;;;5117975;28;20199;-79
2023/03/09 00:41:45;;;;;;;0.73;0.63;;;13.70;70.90;13.80;94283.00;;;;5142683;27;20660;-78
2023/03/09 00:44:14;;;;;;;0.50;0.50;;;13.80;71.10;13.90;94300.00;;;;5124590;27;20229;-79
2023/03/09 00:46:43;;;;;;;0.53;0.50;;;13.80;71.10;13.90;94293.00;;;;5124390;27;20194;-78
2023/03/09 00:49:14;;;;;;;0.50;0.30;;;13.90;71.30;14.00;94286.00;;;;5120215;27;20194;-79
2023/03/09 00:51:43;;;;;;;0.40;0.40;;;13.90;71.20;14.10;94278.00;;;;5134122;27;20225;-78
2023/03/09 00:54:13;;;;;;;0.53;0.40;;;14.00;71.20;14.20;94280.00;;;;5117242;27;20193;-80
2023/03/09 00:56:41;;;;;;;1.13;0.40;;;14.00;71.10;14.20;94273.00;;;;5116182;27;20201;-79
2023/03/09 00:59:10;;;;;;;0.40;0.40;;;14.10;71.10;14.30;94272.00;;;;5134162;27;20281;-78
2023/03/09 01:01:37;;;;;;;0.50;0.20;;;14.20;71.00;14.40;94276.00;;;;5133572;27;20190;-78
2023/03/09 01:04:06;;;;;;;0.20;0.20;;;14.30;70.80;14.50;94270.00;;;;5128169;27;20210;-78
2023/03/09 01:06:34;;;;;;;0.30;0.20;;;14.30;70.60;14.60;94273.00;;;;5116251;27;20278;-78
2023/03/09 01:09:01;;;;;;;0.30;0.30;;;14.40;70.50;14.70;94275.00;;;;5116143;27;20284;-78
2023/03/09 01:11:29;;;;;;;0.77;0.30;;;14.50;70.20;14.70;94261.00;;;;5125289;27;20610;-78
2023/03/09 01:13:56;;;;;;;0.20;0.20;;;14.60;70.10;14.80;94253.00;;;;5132644;27;20204;-78
2023/03/09 01:16:23;;;;;;;0.30;0.30;;;14.60;69.90;14.90;94266.00;;;;5103283;27;20432;-78
2023/03/09 01:18:51;;;;;;;0.40;0.30;;;14.70;69.60;14.90;94260.00;;;;5128699;27;20765;-78
2023/03/09 01:21:20;;;;;;;0.27;0.20;;;14.80;69.50;14.90;94244.00;;;;5132404;27;20272;-79
2023/03/09 01:23:47;;;;;;;0.27;0.20;;;14.80;69.30;15.00;94253.00;;;;5132644;27;20284;-78
2023/03/09 01:26:15;;;;;;;0.23;0.20;;;14.90;69.10;15.00;94245.00;;;;5131937;27;20205;-78
2023/03/09 01:28:42;;;;;;;0.20;0.20;;;14.90;68.80;15.10;94253.00;;;;5132975;27;20216;-78
2023/03/09 01:31:11;;;;;;;0.50;0.30;;;14.90;68.40;15.10;94246.00;;;;5130320;27;20224;-79
2023/03/09 01:33:39;;;;;;;0.20;0.10;;;15.00;68.20;15.10;94246.00;;;;5112707;27;20308;-78
2023/03/09 01:36:09;;;;;;;0.10;0.10;;;15.00;67.90;15.20;94232.00;;;;5128782;27;20285;-78
2023/03/09 01:38:38;;;;;;;0.20;0.20;;;15.00;67.60;15.20;94225.00;;;;5110149;27;20204;-78
2023/03/09 01:41:06;;;;;;;0.07;0.07;;;15.10;67.30;15.20;94223.00;;;;5114834;27;20201;-78
2023/03/09 01:43:39;;;;;;;0.27;0.27;;;15.10;67.00;15.20;94228.00;;;;5122429;27;20305;-78
2023/03/09 01:46:35;;;;;;;0.27;0.10;;;15.10;66.70;15.20;94228.00;;;;5126035;27;20567;-78
2023/03/09 01:49:22;;;;;;;0.10;0.10;;;15.20;66.40;15.20;94234.00;;;;5120084;27;20198;-79
2023/03/09 01:52:00;;;;;;;0.70;0.10;;;15.20;66.30;15.20;94238.00;;;;5113116;27;20228;-79
2023/03/09 01:54:38;;;;;;;0.10;0.10;;;15.20;66.10;15.20;94230.00;;;;5132452;27;20410;-78
2023/03/09 01:57:14;;;;;;;0.10;0.10;;;15.20;66.00;15.20;94237.00;;;;5127690;27;20293;-78
2023/03/09 01:59:45;;;;;;;0.40;0.10;;;15.20;66.00;15.20;94230.00;;;;5127821;27;20190;-78
2023/03/09 02:02:16;;;;;;;0.20;0.20;;;15.20;65.90;15.30;94229.00;;;;5129968;27;20249;-79
2023/03/09 02:04:47;;;;;;;0.10;0.10;;;15.20;65.70;15.30;94228.00;;;;5098594;27;20199;-80
2023/03/09 02:07:18;;;;;;;0.00;0.00;;;15.30;65.50;15.30;94234.00;;;;5133450;27;20280;-78
2023/03/09 02:09:53;;;;;;;0.40;0.30;;;15.20;65.30;15.30;94226.00;;;;5112201;27;20277;-78
2023/03/09 02:12:23;;;;;;;0.20;0.10;;;15.30;65.00;15.30;94219.00;;;;5124442;27;20217;-77
2023/03/09 02:14:51;;;;;;;0.23;0.23;;;15.20;64.70;15.30;94219.00;;;;5123024;27;20635;-78
2023/03/09 02:17:20;;;;;;;0.00;0.00;;;15.30;65.50;15.30;94231.00;;;;5125937;27;20536;-78
2023/03/09 02:20:14;;;;;;;0.10;0.10;;;15.30;64.50;15.30;94218.00;;;;5095192;27;20273;-79
2023/03/09 02:22:43;;;;;;;0.60;0.10;;;15.30;64.40;15.40;94237.00;;;;5130440;27;20225;-78
2023/03/09 02:25:24;;;;;;;0.00;0.00;;;15.30;64.40;15.40;94245.00;;;;5131263;27;20298;-78
2023/03/09 02:27:54;;;;;;;0.10;0.10;;;15.30;64.10;15.40;94245.00;;;;5125690;27;20232;-78
2023/03/09 02:30:25;;;;;;;0.23;0.10;;;15.40;64.10;15.50;94246.00;;;;5132775;28;20288;-78
2023/03/09 02:33:01;;;;;;;0.00;0.00;;;15.40;64.10;15.50;94258.00;;;;5123059;28;20222;-79
2023/03/09 02:35:29;;;;;;;0.10;0.10;;;15.40;63.90;15.60;94267.00;;;;5123315;28;20229;-78
2023/03/09 02:37:56;;;;;;;0.27;0.10;;;15.50;63.80;15.60;94279.00;;;;5109756;28;20577;-78
2023/03/09 02:40:32;;;;;;;0.67;0.30;;;15.50;63.70;15.70;94285.00;;;;5132688;28;20201;-78
2023/03/09 02:43:04;;;;;;;0.63;0.20;;;15.60;63.80;15.70;94278.00;;;;5127280;28;20253;-77
2023/03/09 02:45:34;;;;;;;0.77;0.10;;;15.60;64.10;15.70;94310.00;;;;5130257;28;20202;-78
2023/03/09 02:48:01;;;;;;;0.23;0.00;;;15.60;63.80;15.60;94282.00;;;;5114728;28;20190;-78
2023/03/09 02:50:29;;;;;;;0.47;0.20;;;15.60;63.70;15.40;94282.00;;;;5114067;28;20659;-78
2023/03/09 02:52:56;;;;;;;0.20;0.20;;;15.50;63.40;15.30;94345.00;;;;5120814;28;20260;-78
2023/03/09 02:55:23;;;;;;;0.40;0.20;;;15.50;63.20;15.10;94305.00;;;;5112865;28;20286;-78
2023/03/09 02:57:51;;;;;;;0.10;0.10;;;15.40;63.20;15.00;94315.00;;;;5126968;28;20218;-79
2023/03/09 03:00:23;;;;;;;1.07;0.20;;;15.30;63.40;14.90;94328.00;;;;5133486;28;20198;-77
2023/03/09 03:02:50;;;;;;;0.30;0.30;;;15.20;64.00;14.70;94344.00;;;;5131454;28;20213;-78
2023/03/09 03:05:18;;;;;;;0.20;0.10;;;15.10;64.40;14.60;94332.00;;;;5121851;28;20747;-77
2023/03/09 03:07:46;;;;;;;0.67;0.20;;;15.00;64.70;14.50;94329.00;;;;5105024;28;20198;-77
2023/03/09 03:10:14;;;;;;;0.50;0.10;;;14.90;65.00;14.40;94355.00;;;;5107002;28;20194;-77
2023/03/09 03:12:41;;;;;;;0.23;0.10;;;14.70;65.00;14.30;94353.00;;;;5131009;27;20672;-77
2023/03/09 03:15:10;;;;;;;0.97;0.37;;;14.60;65.90;14.20;94368.00;;;;5126813;28;20200;-78
2023/03/09 03:17:39;;;;;;;0.60;0.10;;;14.50;65.50;14.20;94373.00;;;;5113039;28;20194;-77
2023/03/09 03:20:14;;;;;;;0.10;0.10;;;14.50;65.60;14.10;94358.00;;;;5109052;28;20414;-77
2023/03/09 03:22:41;;;;;;;0.10;0.10;;;14.40;65.60;14.10;94365.00;;;;5132125;28;20301;-77
2023/03/09 03:25:10;;;;;;;0.40;0.10;;;14.30;65.50;14.10;94361.00;;;;5132994;28;20190;-77
2023/03/09 03:27:37;;;;;;;0.20;0.17;;;14.30;65.70;14.00;94355.00;;;;5110655;28;20293;-77
2023/03/09 03:30:05;;;;;;;0.10;0.10;;;14.20;65.80;14.00;94350.00;;;;5114498;28;20198;-77
2023/03/09 03:32:32;;;;;;;0.30;0.20;;;14.20;65.90;14.00;94352.00;;;;5126945;28;20237;-77
2023/03/09 03:35:01;;;;;;;0.10;0.10;;;14.10;66.00;14.00;94355.00;;;;5114806;27;20285;-77
2023/03/09 03:37:29;;;;;;;0.20;0.20;;;14.10;66.10;14.00;94356.00;;;;5119226;27;20214;-77
2023/03/09 03:39:58;;;;;;;0.73;0.10;;;14.10;66.30;14.00;94359.00;;;;5118348;27;20745;-77
2023/03/09 03:42:26;;;;;;;0.30;0.10;;;14.10;66.50;14.00;94353.00;;;;5137125;27;20638;-77
2023/03/09 03:44:53;;;;;;;0.77;0.20;;;14.10;66.70;14.00;94374.00;;;;5130446;27;20186;-77
2023/03/09 03:47:20;;;;;;;1.03;0.20;;;14.10;66.70;14.00;94353.00;;;;5135776;27;20274;-79
2023/03/09 03:49:48;;;;;;;0.43;0.20;;;14.10;66.90;14.00;94358.00;;;;5136239;27;20190;-77
2023/03/09 03:52:16;;;;;;;0.00;0.00;;;14.00;66.90;13.90;94357.00;;;;5135772;27;20300;-77
2023/03/09 03:54:44;;;;;;;0.13;0.10;;;14.00;67.20;13.90;94361.00;;;;5136006;27;20194;-78
2023/03/09 03:57:12;;;;;;;0.20;0.10;;;14.00;67.30;13.90;94359.00;;;;5134640;27;20628;-77
2023/03/09 03:59:39;;;;;;;0.20;0.20;;;14.00;67.50;13.90;94371.00;;;;5093500;27;20580;-77
2023/03/09 04:02:06;;;;;;;0.27;0.20;;;13.90;67.50;13.80;94385.00;;;;5133725;27;20228;-76
2023/03/09 04:04:34;;;;;;;0.90;0.30;;;13.90;67.80;13.80;94388.00;;;;5113910;27;20752;-77
2023/03/09 04:07:01;;;;;;;0.90;0.27;;;13.90;68.00;13.70;94376.00;;;;5111757;28;20191;-77
2023/03/09 04:09:30;;;;;;;0.30;0.20;;;13.80;68.20;13.70;94353.00;;;;5096026;27;20193;-77
2023/03/09 04:11:57;;;;;;;0.40;0.20;;;13.80;68.50;13.60;94336.00;;;;5111070;28;20740;-77
2023/03/09 04:14:25;;;;;;;0.63;0.20;;;13.70;68.90;13.60;94327.00;;;;5137166;27;20190;-78
2023/03/09 04:16:52;;;;;;;0.30;0.20;;;13.70;69.50;13.50;94318.00;;;;5144488;27;20214;-78
2023/03/09 04:19:19;;;;;;;1.33;0.20;;;13.70;69.70;13.50;94321.00;;;;5147130;27;20222;-77
2023/03/09 04:21:46;;;;;;;1.03;0.10;;;13.60;70.00;13.40;94326.00;;;;5143619;27;20254;-77
2023/03/09 04:24:14;;;;;;;0.03;0.03;;;13.50;70.00;13.40;94325.00;;;;5141570;27;20285;-78
2023/03/09 04:26:42;;;;;;;0.50;0.20;;;13.50;70.50;13.30;94326.00;;;;5144571;27;20213;-78
2023/03/09 04:29:11;;;;;;;0.60;0.10;;;13.50;70.60;13.30;94330.00;;;;5137238;27;20207;-78
2023/03/09 04:31:38;;;;;;;0.20;0.20;;;13.40;70.70;13.20;94326.00;;;;5129245;27;20282;-78
2023/03/09 04:34:05;;;;;;;0.60;0.20;;;13.40;70.70;13.20;94337.00;;;;5119408;27;20189;-78
2023/03/09 04:36:33;;;;;;;0.50;0.20;;;13.40;70.70;13.20;94339.00;;;;5131573;27;20232;-78
2023/03/09 04:39:00;;;;;;;0.97;0.40;;;13.40;70.90;13.20;94347.00;;;;5133682;27;20305;-78
2023/03/09 04:41:27;;;;;;;1.20;0.30;;;13.30;71.20;13.20;94355.00;;;;5133226;27;20561;-78
2023/03/09 04:43:56;;;;;;;0.40;0.37;;;13.30;71.40;13.20;94340.00;;;;5134834;27;20288;-79
2023/03/09 04:46:23;;;;;;;0.40;0.20;;;13.30;71.90;13.20;94325.00;;;;5131460;27;20204;-78
2023/03/09 04:48:50;;;;;;;0.43;0.30;;;13.30;72.00;13.20;94333.00;;;;5133949;27;20226;-78
2023/03/09 04:51:18;;;;;;;0.80;0.20;;;13.30;72.30;13.20;94336.00;;;;5134878;27;20194;-78
2023/03/09 04:53:45;;;;;;;0.10;0.10;;;13.30;72.70;13.20;94338.00;;;;5127974;27;20226;-79
2023/03/09 04:56:12;;;;;;;0.80;0.40;;;13.30;72.80;13.20;94336.00;;;;5115104;27;20275;-79
2023/03/09 04:58:40;;;;;;;0.60;0.30;;;13.30;72.80;13.20;94338.00;;;;5096611;27;20190;-78
2023/03/09 05:01:09;;;;;;;0.30;0.30;;;13.30;73.10;13.30;94346.00;;;;5122971;27;20212;-79
2023/03/09 05:03:36;;;;;;;0.37;0.37;;;13.30;73.30;13.30;94349.00;;;;5111023;27;20236;-78
2023/03/09 05:06:04;;;;;;;0.60;0.40;;;13.30;73.30;13.30;94359.00;;;;5132825;27;20603;-78
2023/03/09 05:08:31;;;;;;;0.47;0.20;;;13.30;73.10;13.30;94347.00;;;;5132350;27;20282;-79
2023/03/09 05:10:58;;;;;;;0.30;0.20;;;13.30;73.20;13.30;94355.00;;;;5132000;27;20194;-79
2023/03/09 05:13:26;;;;;;;0.97;0.47;;;13.30;73.50;13.30;94362.00;;;;5115577;27;20599;-78
2023/03/09 05:15:53;;;;;;;1.00;0.33;;;13.40;73.70;13.40;94363.00;;;;5133478;27;20282;-78
2023/03/09 05:18:22;;;;;;;0.40;0.20;;;13.40;73.60;13.40;94370.00;;;;5133817;27;20201;-78
2023/03/09 05:20:50;;;;;;;1.80;0.40;;;13.40;73.80;13.40;94372.00;;;;5133979;27;20212;-78
2023/03/09 05:23:17;;;;;;;0.30;0.30;;;13.40;73.40;13.40;94375.00;;;;5133650;27;20814;-78
2023/03/09 05:25:44;;;;;;;0.60;0.30;;;13.40;73.70;13.40;94366.00;;;;5132230;27;20220;-78
2023/03/09 05:28:12;;;;;;;0.30;0.30;;;13.40;73.90;13.40;94385.00;;;;5134038;27;20208;-79
2023/03/09 05:30:41;;;;;;;0.57;0.47;;;13.40;73.90;13.50;94397.00;;;;5115548;27;20204;-78
2023/03/09 05:33:09;;;;;;;0.37;0.20;;;13.50;73.90;13.50;94411.00;;;;5109943;27;20217;-79
2023/03/09 05:35:38;;;;;;;2.00;0.40;;;13.50;73.60;13.50;94404.00;;;;5133286;27;20198;-78
2023/03/09 05:38:05;;;;;;;0.40;0.30;;;13.50;73.60;13.50;94409.00;;;;5133861;27;20221;-77
2023/03/09 05:40:32;;;;;;;0.17;0.17;;;13.50;73.40;13.60;94425.00;;;;5113898;27;20190;-78
2023/03/09 05:43:00;;;;;;;1.67;0.30;;;13.60;73.50;13.60;94435.00;;;;5133317;27;20660;-78
2023/03/09 05:45:27;;;;;;;0.17;0.17;;;13.60;73.20;13.60;94445.00;;;;5133990;27;20194;-78
2023/03/09 05:47:54;;;;;;;0.90;0.27;;;13.60;73.00;13.60;94458.00;;;;5115580;27;20208;-78
2023/03/09 05:50:22;;;;;;;0.10;0.10;;;13.60;73.00;13.60;94467.00;;;;5132738;27;20717;-78
2023/03/09 05:52:50;;;;;;;0.20;0.20;;;13.60;73.10;13.60;94485.00;;;;5131490;27;20769;-78
2023/03/09 05:55:18;;;;;;;0.20;0.20;;;13.60;73.40;13.50;94494.00;;;;5113245;27;20201;-78
2023/03/09 05:57:45;;;;;;;0.20;0.10;;;13.60;73.40;13.50;94494.00;;;;5132010;27;20210;-78
2023/03/09 06:00:14;;;;;;;0.47;0.13;;;13.60;73.30;13.50;94507.00;;;;5128002;27;20272;-78
2023/03/09 06:02:41;;;;;;;0.13;0.13;;;13.60;73.30;13.50;94504.00;;;;5135035;27;20214;-78
2023/03/09 06:05:09;;;;;;;0.17;0.17;;;13.60;73.30;13.60;94525.00;;;;5117950;27;20687;-78
2023/03/09 06:07:36;;;;;;;0.40;0.27;;;13.60;73.10;13.60;94531.00;;;;5131583;27;20281;-82
2023/03/09 06:10:08;;;;;;;1.03;0.20;;;13.60;73.10;13.60;94524.00;;;;5131857;27;20254;-83
2023/03/09 06:12:35;;;;;;;0.57;0.50;;;13.60;73.20;13.60;94544.00;;;;5138568;27;20222;-82
2023/03/09 06:15:03;;;;;;;0.57;0.50;;;13.60;73.30;13.70;94542.00;;;;5138391;27;20683;-82
2023/03/09 06:17:31;;;;;;;1.97;0.60;;;13.60;73.10;13.70;94560.00;;;;5141055;27;20194;-83
2023/03/09 06:19:58;;;;;;;0.70;0.50;;;13.70;73.30;13.80;94561.00;;;;5139412;27;20359;-82
2023/03/09 06:22:26;;;;;;;0.90;0.60;;;13.70;73.20;13.80;94575.00;;;;5115926;28;20234;-83
2023/03/09 06:24:54;;;;;;;0.47;0.47;;;13.70;73.00;13.80;94582.00;;;;5140079;27;20677;-82
2023/03/09 06:27:22;;;;;;;0.67;0.50;;;13.70;72.80;13.90;94592.00;;;;5140440;27;20201;-82
2023/03/09 06:29:49;;;;;;;1.17;0.43;;;13.80;72.50;13.90;94599.00;;;;5139532;27;20193;-81
2023/03/09 06:32:17;;;;;;;0.50;0.40;;;13.80;72.30;13.90;94603.00;;;;5131441;28;20245;-81
2023/03/09 06:34:45;;;;;;;0.80;0.30;;;13.80;72.10;13.90;94617.00;;;;5136067;28;20190;-80
2023/03/09 06:37:12;;;;;;;1.17;0.40;;;13.80;71.90;13.90;94637.00;;;;5143216;28;20205;-81
2023/03/09 06:39:39;;;;;;;0.60;0.40;;;13.80;71.70;13.90;94634.00;;;;5143065;28;20218;-80
2023/03/09 06:42:07;;;;;;;0.67;0.40;;;13.90;71.70;13.90;94648.00;;;;5143332;28;20738;-82
2023/03/09 06:44:36;;;;;;;1.03;0.30;;;13.90;71.60;14.00;94647.00;;;;5143277;28;20225;-83
2023/03/09 06:47:04;;;;;;;1.07;0.40;;;13.90;71.50;14.00;94663.00;;;;5088768;28;20277;-83
2023/03/09 06:49:31;;;;;;;0.77;0.40;;;13.90;71.40;14.00;94666.00;;;;5121586;28;20226;-82
2023/03/09 06:51:59;;;;;;;0.43;0.40;;;14.00;71.40;14.10;94674.00;;;;5141008;27;20217;-82
2023/03/09 06:54:26;;;;;;;0.67;0.50;;;14.00;71.40;14.10;94684.00;;;;5139944;28;20221;-81
2023/03/09 06:56:54;;;;;;;1.47;0.70;;;14.00;71.30;14.10;94704.00;;;;5121401;28;20810;-83
2023/03/09 06:59:22;;;;;;;0.70;0.40;;;14.00;71.30;14.20;94701.00;;;;5139893;28;20198;-82
2023/03/09 07:01:51;;;;;;;0.50;0.40;;;14.10;71.30;14.20;94727.00;;;;5119307;28;20214;-82
2023/03/09 07:04:18;;;;;;;0.93;0.60;;;14.10;71.20;14.20;94721.00;;;;5109510;28;20730;-80
2023/03/09 07:06:46;;;;;;;1.10;0.60;;;14.10;71.20;14.30;94734.00;;;;5143300;28;20681;-81
2023/03/09 07:09:13;;;;;;;0.93;0.60;;;14.20;71.10;14.30;94736.00;;;;5110537;27;20236;-84
2023/03/09 07:11:40;;;;;;;1.03;0.40;;;14.20;71.00;14.30;94751.00;;;;5149533;27;20201;-81
2023/03/09 07:14:07;;;;;;;0.73;0.53;;;14.20;70.90;14.40;94753.00;;;;5130687;27;20222;-81
2023/03/09 07:16:34;;;;;;;1.50;0.67;;;14.20;70.60;14.40;94767.00;;;;5150001;27;20194;-81
2023/03/09 07:19:03;;;;;;;1.03;0.60;;;14.30;70.40;14.50;94768.00;;;;5132704;27;20198;-82
2023/03/09 07:21:31;;;;;;;1.00;0.60;;;14.30;70.30;14.50;94773.00;;;;5131487;27;20268;-82
2023/03/09 07:23:58;;;;;;;0.37;0.37;;;14.30;70.20;14.50;94783.00;;;;5139788;27;20209;-81
2023/03/09 07:26:27;;;;;;;0.83;0.50;;;14.40;70.20;14.60;94779.00;;;;5128114;27;20213;-81
2023/03/09 07:28:54;;;;;;;1.07;0.40;;;14.40;69.80;14.60;94799.00;;;;5135471;27;20209;-80
2023/03/09 07:31:22;;;;;;;0.67;0.50;;;14.40;69.40;14.60;94806.00;;;;5135165;27;20220;-80
2023/03/09 07:33:50;;;;;;;1.33;0.50;;;14.50;69.30;14.60;94817.00;;;;5152766;27;20221;-82
2023/03/09 07:36:19;;;;;;;1.20;0.43;;;14.50;69.10;14.60;94804.00;;;;5146591;27;20201;-81
2023/03/09 07:38:47;;;;;;;1.10;0.63;;;14.50;68.90;14.70;94826.00;;;;5145300;27;20209;-81
2023/03/09 07:41:15;;;;;;;2.13;0.50;;;14.50;68.80;14.70;94830.00;;;;5141982;27;20689;-79
2023/03/09 07:43:43;;;;;;;0.80;0.53;;;14.50;68.60;14.60;94835.00;;;;5139010;27;20325;-78
2023/03/09 07:46:12;;;;;;;2.47;0.83;;;14.50;68.50;14.70;94836.00;;;;5137703;27;20201;-82
2023/03/09 07:48:40;;;;;;;2.80;0.63;;;14.60;68.60;14.70;94844.00;;;;5101687;27;20198;-81
2023/03/09 07:51:09;;;;;;;1.30;0.70;;;14.60;68.50;14.80;94840.00;;;;5119212;27;20278;-80
2023/03/09 07:53:40;;;;;;;2.43;0.90;;;14.60;68.50;14.80;94841.00;;;;5118977;27;20253;-81
2023/03/09 07:56:09;;;;;;;1.47;0.60;;;14.70;68.40;14.90;94856.00;;;;5137886;27;20293;-81
2023/03/09 07:58:39;;;;;;;1.67;0.50;;;14.70;68.50;15.00;94857.00;;;;5119033;27;20833;-81
2023/03/09 08:01:08;;;;;;;1.43;0.67;;;14.70;68.60;15.10;94864.00;;;;5125656;27;20200;-81
2023/03/09 08:03:36;;;;;;;0.60;0.40;;;14.80;68.50;15.20;94869.00;;;;5143690;27;20293;-81
2023/03/09 08:06:05;;;;;;;1.93;0.80;;;14.80;68.30;15.20;94871.00;;;;5126516;27;20194;-84
2023/03/09 08:08:34;;;;;;;1.93;0.70;;;14.90;68.40;15.30;94877.00;;;;5145438;27;20186;-81
2023/03/09 08:11:04;;;;;;;3.03;0.50;;;14.90;68.60;15.40;94864.00;;;;5127166;27;20637;-81
2023/03/09 08:13:32;;;;;;;1.00;0.40;;;15.00;68.50;15.40;94891.00;;;;5146296;27;20713;-83
2023/03/09 08:16:03;;;;;;;0.87;0.50;;;15.10;68.50;15.40;94891.00;;;;5140293;27;20221;-82
2023/03/09 08:18:31;;;;;;;0.90;0.50;;;15.20;68.30;15.50;94901.00;;;;5139080;27;20197;-82
2023/03/09 08:21:06;;;;;;;1.87;0.60;;;15.20;68.20;15.50;94898.00;;;;5119535;27;20222;-79
2023/03/09 08:23:35;;;;;;;0.40;0.30;;;15.30;68.00;15.60;94910.00;;;;5115307;27;20213;-81
2023/03/09 08:26:04;;;;;;;1.43;0.30;;;15.30;68.00;15.60;94914.00;;;;5121189;27;20194;-82
2023/03/09 08:28:32;;;;;;;0.77;0.40;;;15.30;67.90;15.60;94912.00;;;;5139420;27;20663;-82
2023/03/09 08:31:01;;;;;;;1.03;0.60;;;15.40;68.00;15.70;94921.00;;;;5139205;27;20197;-81
2023/03/09 08:33:28;;;;;;;0.40;0.30;;;14.10;67.10;15.70;94912.00;;;;5140851;27;20229;-80
2023/03/09 08:35:55;;;;;;;0.77;0.30;;;15.50;67.90;15.80;94927.00;;;;5122106;27;20194;-81
2023/03/09 08:38:23;;;;;;;0.47;0.33;;;15.50;68.00;16.00;94924.00;;;;5134901;27;20208;-80
2023/03/09 08:40:51;;;;;;;0.40;0.20;;;15.60;68.10;16.10;94939.00;;;;5097484;28;20205;-81
2023/03/09 08:43:20;;;;;;;0.83;0.20;;;15.70;68.00;16.10;94928.00;;;;5109372;27;20279;-81
2023/03/09 08:45:48;;;;;;;0.40;0.30;;;15.70;67.70;16.10;94932.00;;;;5140160;27;20289;-81
2023/03/09 08:48:15;;;;;;;0.50;0.30;;;15.80;67.50;16.20;94941.00;;;;5141436;27;20662;-80
2023/03/09 08:50:43;;;;;;;1.27;0.40;;;15.80;67.20;16.20;94952.00;;;;5138819;27;20277;-79
2023/03/09 08:53:10;;;;;;;0.47;0.33;;;15.90;66.70;16.30;94942.00;;;;5132113;27;20221;-80
2023/03/09 08:55:38;;;;;;;0.40;0.30;;;16.00;66.60;16.30;94957.00;;;;5123969;27;20661;-80
2023/03/09 08:58:07;;;;;;;0.70;0.10;;;16.00;66.50;16.30;94962.00;;;;5124211;27;20662;-81
2023/03/09 09:00:38;;;;;;;0.57;0.30;;;16.00;66.30;16.40;94955.00;;;;5123345;27;20242;-81
2023/03/09 09:03:05;;;;;;;0.30;0.20;;;16.10;66.00;16.40;94961.00;;;;5106099;27;20228;-80
2023/03/09 09:05:34;;;;;;;0.77;0.30;;;16.10;65.90;16.40;94970.00;;;;5142472;27;20257;-82
2023/03/09 09:08:02;;;;;;;1.80;0.23;;;16.20;65.60;16.50;94954.00;;;;5123240;27;20206;-81
2023/03/09 09:10:30;;;;;;;0.90;0.30;;;16.20;66.20;16.50;94970.00;;;;5124718;27;20630;-80
2023/03/09 09:12:58;;;;;;;0.43;0.37;;;16.20;65.30;16.60;94965.00;;;;5107037;27;20209;-80
2023/03/09 09:15:27;;;;;;;0.80;0.60;;;16.30;65.00;16.60;94967.00;;;;5123591;27;20220;-80
2023/03/09 09:17:56;;;;;;;1.43;0.60;;;16.30;64.80;16.70;94990.00;;;;5125428;27;20215;-81
2023/03/09 09:20:23;;;;;;;0.23;0.20;;;16.40;65.00;16.80;94973.00;;;;5123386;27;20205;-79
2023/03/09 09:22:50;;;;;;;0.77;0.37;;;16.40;64.60;16.80;94971.00;;;;5142710;27;20218;-81
2023/03/09 09:25:18;;;;;;;0.97;0.40;;;16.50;64.80;16.90;94983.00;;;;5123640;27;20193;-81
2023/03/09 09:27:46;;;;;;;0.93;0.30;;;16.50;64.40;17.00;94981.00;;;;5143229;27;20747;-80
2023/03/09 09:30:15;;;;;;;0.87;0.50;;;16.60;64.20;17.00;94978.00;;;;5144012;27;20277;-80
2023/03/09 09:32:44;;;;;;;0.60;0.30;;;16.70;63.90;17.10;94979.00;;;;5142883;27;20277;-81
2023/03/09 09:35:15;;;;;;;1.27;0.30;;;16.70;64.00;17.10;94988.00;;;;5142151;27;20796;-82
2023/03/09 09:37:43;;;;;;;3.37;0.60;;;16.80;63.70;17.10;94999.00;;;;5142755;27;20784;-79
2023/03/09 09:40:15;;;;;;;0.50;0.40;;;16.80;63.20;17.10;95015.00;;;;5143429;27;20245;-80
2023/03/09 09:42:45;;;;;;;0.83;0.50;;;16.80;62.60;17.10;94987.00;;;;5143605;27;20246;-81
2023/03/09 09:45:30;;;;;;;1.90;0.40;;;16.80;62.10;17.10;95004.00;;;;5142930;27;20256;-82
2023/03/09 09:48:02;;;;;;;0.30;0.30;;;16.80;61.40;17.20;95001.00;;;;5130714;27;20186;-81
2023/03/09 09:50:50;;;;;;;0.67;0.33;;;16.90;62.40;17.30;95002.00;;;;5140661;27;20202;-81
2023/03/09 09:53:35;;;;;;;0.83;0.50;;;17.00;62.00;17.50;95018.00;;;;5124886;27;20219;-81
2023/03/09 09:56:08;;;;;;;1.87;0.43;;;17.10;61.80;17.60;95019.00;;;;5110758;27;20206;-81
2023/03/09 09:58:45;;;;;;;2.60;0.80;;;17.20;62.20;17.70;95035.00;;;;5144117;27;20242;-80
2023/03/09 10:01:24;;;;;;;2.43;0.67;;;17.30;61.60;17.80;95021.00;;;;5106249;28;20656;-80
2023/03/09 10:03:57;;;;;;;1.17;0.57;;;17.40;60.60;17.80;95020.00;;;;5097772;27;20666;-80
2023/03/09 10:06:28;;;;;;;2.07;0.50;;;17.40;60.50;17.80;95031.00;;;;5139991;27;20190;-80
2023/03/09 10:09:00;;;;;;;0.63;0.50;;;17.50;60.50;17.90;95033.00;;;;5126767;27;20642;-80
2023/03/09 10:11:33;;;;;;;2.30;0.60;;;17.50;60.00;17.90;95009.00;;;;5144542;27;20667;-82
2023/03/09 10:14:15;;;;;;;1.07;0.30;;;17.60;60.00;17.90;95030.00;;;;5127340;27;20293;-81
2023/03/09 10:16:48;;;;;;;0.53;0.47;;;17.60;59.50;17.90;95023.00;;;;5142448;27;20192;-82
2023/03/09 10:19:19;;;;;;;1.00;0.50;;;17.60;59.50;17.90;95042.00;;;;5145526;27;20227;-81
2023/03/09 10:21:56;;;;;;;0.70;0.60;;;17.60;59.20;17.80;95029.00;;;;5147251;27;20221;-81
2023/03/09 10:24:26;;;;;;;1.37;0.30;;;17.60;59.00;17.70;95038.00;;;;5127117;27;20194;-82
2023/03/09 10:27:05;;;;;;;0.50;0.30;;;17.60;58.60;17.60;95024.00;;;;5133131;28;20273;-83
2023/03/09 10:29:47;;;;;;;1.17;0.57;;;17.50;58.60;17.60;95014.00;;;;5145469;27;20197;-83
2023/03/09 10:32:21;;;;;;;0.80;0.40;;;17.50;58.40;17.60;95035.00;;;;5147498;27;20222;-79
2023/03/09 10:35:04;;;;;;;1.17;0.50;;;17.40;58.40;17.50;95034.00;;;;5149890;28;20294;-80
2023/03/09 10:37:36;;;;;;;0.93;0.43;;;17.40;58.30;17.50;95035.00;;;;5131368;28;20200;-82
2023/03/09 10:40:15;;;;;;;0.63;0.50;;;17.40;58.40;17.50;95040.00;;;;5145334;28;20197;-81
2023/03/09 10:42:43;;;;;;;0.77;0.40;;;17.30;58.10;17.40;95051.00;;;;5112641;28;20268;-80
2023/03/09 10:45:24;;;;;;;1.33;0.33;;;17.30;58.20;17.30;95049.00;;;;5150390;27;20194;-81
2023/03/09 10:47:59;;;;;;;0.60;0.30;;;17.20;57.70;17.30;95048.00;;;;5154200;27;20190;-82
2023/03/09 10:50:31;;;;;;;1.30;0.70;;;17.20;58.00;17.30;95060.00;;;;5118258;28;20207;-81
2023/03/09 10:53:25;;;;;;;2.10;0.40;;;17.10;58.00;17.20;95055.00;;;;5135906;28;20230;-80
2023/03/09 10:55:55;;;;;;;1.33;0.70;;;17.10;57.80;17.30;95045.00;;;;5130575;27;20186;-81
2023/03/09 10:58:24;;;;;;;0.40;0.30;;;17.10;58.20;17.30;95051.00;;;;5137010;27;20258;-80
2023/03/09 11:00:59;;;;;;;0.47;0.30;;;17.10;58.20;17.30;95051.00;;;;5126032;28;20214;-85
2023/03/09 11:03:33;;;;;;;1.43;0.53;;;17.10;58.20;17.40;95044.00;;;;5129068;28;20242;-80
2023/03/09 11:06:22;;;;;;;1.07;0.40;;;17.10;58.40;17.50;95052.00;;;;5129290;28;20258;-80